Time;durP1;ratioP1;P1;durP2;ratioP2;P2;SDS_P1;SDS_P2;PMS_P1;PMS_P2;Temp;Humidity;BMP_temperature;BMP_pressure;BME280_temperature;BME280_humidity;BME280_pressure;Samples;Min_cycle;Max_cycle;Signal;HPM_P1;HPM_P2
2023/10/05 00:00:46;;;;;;;8.88;6.40;;;;;;;;;;10343976;28;20106;-70
2023/10/05 00:05:44;;;;;;;8.25;6.03;;;;;;;;;;10350900;28;20063;-71
2023/10/05 00:10:40;;;;;;;11.20;6.38;;;;;;;;;;10347499;28;20056;-71
2023/10/05 00:15:37;;;;;;;13.18;6.32;;;;;;;;;;10356173;28;20052;-71
2023/10/05 00:20:38;;;;;;;13.82;6.07;;;;;;;;;;10350690;28;20056;-71
2023/10/05 00:25:35;;;;;;;10.77;5.90;;;;;;;;;;10344542;28;20064;-71
2023/10/05 00:30:31;;;;;;;6.78;5.53;;;;;;;;;;10357348;28;20672;-71
2023/10/05 00:35:32;;;;;;;8.20;5.60;;;;;;;;;;10353766;28;20056;-71
2023/10/05 00:40:36;;;;;;;11.07;6.13;;;;;;;;;;10344424;28;20612;-70
2023/10/05 00:45:33;;;;;;;19.35;7.05;;;;;;;;;;10352926;28;20053;-71
2023/10/05 00:50:32;;;;;;;9.77;6.13;;;;;;;;;;10350391;28;20048;-71
2023/10/05 00:55:29;;;;;;;15.38;6.47;;;;;;;;;;10344642;28;20109;-71
2023/10/05 01:00:28;;;;;;;11.40;6.82;;;;;;;;;;10355416;28;20060;-71
2023/10/05 01:05:34;;;;;;;14.93;6.20;;;;;;;;;;10346190;28;20166;-71
2023/10/05 01:10:42;;;;;;;9.57;6.00;;;;;;;;;;10343592;28;20083;-71
2023/10/05 01:15:39;;;;;;;9.57;6.20;;;;;;;;;;10355438;28;20055;-71
2023/10/05 01:20:37;;;;;;;10.90;5.97;;;;;;;;;;10353386;28;20478;-71
2023/10/05 01:25:36;;;;;;;9.95;6.53;;;;;;;;;;10351116;28;20423;-71
2023/10/05 01:30:37;;;;;;;7.47;5.68;;;;;;;;;;10352158;28;20419;-70
2023/10/05 01:35:35;;;;;;;10.90;6.50;;;;;;;;;;10358749;28;20056;-70
2023/10/05 01:40:31;;;;;;;8.90;5.95;;;;;;;;;;10336104;28;20535;-71
2023/10/05 01:45:34;;;;;;;9.25;6.65;;;;;;;;;;10345997;28;20044;-71
2023/10/05 01:50:33;;;;;;;12.70;6.22;;;;;;;;;;10349032;28;20082;-71
2023/10/05 01:55:34;;;;;;;10.90;5.82;;;;;;;;;;10350034;28;20497;-71
2023/10/05 02:00:32;;;;;;;10.50;5.97;;;;;;;;;;10354190;28;20432;-71
2023/10/05 02:05:30;;;;;;;12.02;5.85;;;;;;;;;;10343131;28;20075;-71
2023/10/05 02:10:32;;;;;;;14.18;6.20;;;;;;;;;;10346557;28;20113;-71
2023/10/05 02:15:29;;;;;;;10.02;5.93;;;;;;;;;;10359294;28;20050;-71
2023/10/05 02:25:33;;;;;;;;;;;;;;;;;;10349056;28;20064;-71
2023/10/05 02:30:31;;;;;;;11.40;6.90;;;;;;;;;;10352160;28;19920;-71
2023/10/05 02:35:33;;;;;;;10.35;6.05;;;;;;;;;;10346838;28;20055;-71
2023/10/05 02:40:35;;;;;;;11.03;7.00;;;;;;;;;;10334436;28;20098;-71
2023/10/05 02:45:32;;;;;;;12.05;6.70;;;;;;;;;;10347551;28;20047;-71
2023/10/05 02:50:29;;;;;;;13.23;6.70;;;;;;;;;;10348636;28;20121;-71
2023/10/05 02:55:32;;;;;;;9.75;6.32;;;;;;;;;;10353648;28;20060;-71
2023/10/05 03:00:28;;;;;;;13.13;6.90;;;;;;;;;;10348274;28;20137;-71
2023/10/05 03:05:25;;;;;;;8.25;6.50;;;;;;;;;;10345966;28;20070;-71
2023/10/05 03:10:23;;;;;;;10.88;7.10;;;;;;;;;;10351270;28;20052;-71
2023/10/05 03:15:23;;;;;;;11.60;6.97;;;;;;;;;;10352494;28;20048;-71
2023/10/05 03:20:21;;;;;;;11.45;6.88;;;;;;;;;;10388216;22;20128;-71
2023/10/05 03:25:19;;;;;;;11.15;7.22;;;;;;;;;;10343209;28;20086;-71
2023/10/05 03:30:16;;;;;;;11.15;7.10;;;;;;;;;;10338739;28;20052;-71
2023/10/05 03:35:13;;;;;;;11.68;7.00;;;;;;;;;;10328549;28;20101;-71
2023/10/05 03:40:27;;;;;;;12.27;7.07;;;;;;;;;;10332478;28;20052;-71
2023/10/05 03:45:24;;;;;;;10.10;7.40;;;;;;;;;;10339453;28;20048;-71
2023/10/05 03:50:21;;;;;;;7.65;6.85;;;;;;;;;;10329774;28;20102;-71
2023/10/05 03:55:19;;;;;;;12.98;7.10;;;;;;;;;;10341004;28;20048;-71
2023/10/05 04:00:23;;;;;;;10.50;7.28;;;;;;;;;;10351408;28;20514;-71
2023/10/05 04:05:22;;;;;;;8.85;7.55;;;;;;;;;;10343130;28;20040;-71
2023/10/05 04:10:23;;;;;;;10.23;7.97;;;;;;;;;;10337229;28;20495;-71
2023/10/05 04:15:20;;;;;;;9.45;8.05;;;;;;;;;;10340758;28;20079;-71
2023/10/05 04:20:19;;;;;;;16.35;8.10;;;;;;;;;;10337899;28;20620;-71
2023/10/05 04:25:16;;;;;;;14.07;8.23;;;;;;;;;;10342421;28;20083;-71
2023/10/05 04:30:17;;;;;;;12.55;8.75;;;;;;;;;;10324222;28;20544;-71
2023/10/05 04:35:23;;;;;;;10.02;8.55;;;;;;;;;;10325812;28;20507;-72
2023/10/05 04:40:22;;;;;;;12.38;8.90;;;;;;;;;;10343046;28;20523;-71
2023/10/05 04:45:20;;;;;;;13.02;8.35;;;;;;;;;;10324869;28;20049;-71
2023/10/05 04:50:17;;;;;;;15.38;8.70;;;;;;;;;;10325587;28;20099;-71
2023/10/05 04:55:17;;;;;;;10.23;8.85;;;;;;;;;;10336975;28;20131;-68
2023/10/05 05:05:53;;;;;;;11.32;9.45;;;;;;;;;;10333131;28;20078;-71
2023/10/05 05:10:49;;;;;;;15.55;9.95;;;;;;;;;;10345825;28;20090;-71
2023/10/05 05:15:46;;;;;;;13.93;9.95;;;;;;;;;;10337401;28;20074;-71
2023/10/05 05:20:44;;;;;;;11.00;9.40;;;;;;;;;;10335282;28;20048;-71
2023/10/05 05:25:40;;;;;;;15.02;10.70;;;;;;;;;;10342412;28;20055;-71
2023/10/05 05:30:37;;;;;;;13.82;11.45;;;;;;;;;;10346917;28;20079;-71
2023/10/05 05:35:33;;;;;;;17.05;11.55;;;;;;;;;;10336033;28;20044;-71
2023/10/05 05:40:34;;;;;;;12.43;11.23;;;;;;;;;;10328488;28;20052;-71
2023/10/05 05:45:31;;;;;;;18.67;10.98;;;;;;;;;;10338300;28;20145;-71
2023/10/05 05:50:29;;;;;;;15.52;11.52;;;;;;;;;;10345480;28;20049;-71
2023/10/05 05:55:26;;;;;;;12.73;11.25;;;;;;;;;;10341415;28;20049;-71
2023/10/05 06:00:22;;;;;;;16.52;11.68;;;;;;;;;;10345906;28;20560;-71
2023/10/05 06:05:22;;;;;;;17.23;12.13;;;;;;;;;;10342613;28;20051;-71
2023/10/05 06:10:28;;;;;;;24.58;10.95;;;;;;;;;;10340509;28;20056;-71
2023/10/05 06:15:24;;;;;;;13.20;10.38;;;;;;;;;;10339187;28;20051;-71
2023/10/05 06:20:21;;;;;;;11.43;10.27;;;;;;;;;;10331586;28;20115;-71
2023/10/05 06:25:18;;;;;;;16.27;11.27;;;;;;;;;;10328779;28;20065;-71
2023/10/05 06:30:15;;;;;;;15.23;11.65;;;;;;;;;;10324062;28;20481;-71
2023/10/05 06:35:11;;;;;;;16.13;9.93;;;;;;;;;;10333141;28;20063;-71
2023/10/05 06:40:12;;;;;;;16.77;10.35;;;;;;;;;;10340776;28;20457;-71
2023/10/05 06:45:10;;;;;;;13.98;10.43;;;;;;;;;;10336590;28;20508;-71
2023/10/05 06:50:10;;;;;;;19.88;10.73;;;;;;;;;;10342892;28;20044;-71
2023/10/05 06:55:07;;;;;;;11.95;10.77;;;;;;;;;;10330300;28;20053;-71
2023/10/05 07:00:11;;;;;;;14.80;10.05;;;;;;;;;;10330129;28;20132;-71
2023/10/05 07:05:08;;;;;;;14.32;11.00;;;;;;;;;;10323999;28;20131;-71
2023/10/05 07:10:06;;;;;;;16.02;10.70;;;;;;;;;;10346649;28;20048;-71
2023/10/05 07:15:02;;;;;;;17.15;9.73;;;;;;;;;;10332979;28;20052;-72
2023/10/05 07:19:58;;;;;;;9.88;8.88;;;;;;;;;;10331387;28;20615;-71
2023/10/05 07:24:56;;;;;;;8.88;8.18;;;;;;;;;;10321150;28;20047;-71
2023/10/05 07:29:52;;;;;;;9.88;8.88;;;;;;;;;;10344051;28;20041;-70
2023/10/05 07:34:48;;;;;;;9.38;8.52;;;;;;;;;;10346808;28;20055;-69
2023/10/05 07:39:46;;;;;;;9.10;8.20;;;;;;;;;;10345519;28;20123;-70
2023/10/05 07:44:43;;;;;;;9.02;8.13;;;;;;;;;;10346344;28;20048;-71
2023/10/05 07:49:41;;;;;;;8.55;7.78;;;;;;;;;;10323373;28;20117;-71
2023/10/05 07:54:38;;;;;;;8.68;7.50;;;;;;;;;;10319570;28;20083;-71
2023/10/05 07:59:34;;;;;;;9.35;8.27;;;;;;;;;;10345707;28;20511;-70
2023/10/05 08:04:32;;;;;;;8.25;7.57;;;;;;;;;;10348326;28;20044;-71
2023/10/05 08:09:29;;;;;;;8.30;7.70;;;;;;;;;;10346154;28;20512;-70
2023/10/05 08:14:26;;;;;;;8.73;8.00;;;;;;;;;;10345922;28;20105;-70
2023/10/05 08:19:24;;;;;;;8.05;7.35;;;;;;;;;;10344420;28;20048;-70
2023/10/05 08:24:23;;;;;;;8.48;7.75;;;;;;;;;;10341058;28;20059;-70
2023/10/05 08:29:22;;;;;;;8.23;7.53;;;;;;;;;;10343203;28;20048;-70
2023/10/05 08:34:21;;;;;;;9.27;8.48;;;;;;;;;;10337021;28;20498;-70
2023/10/05 08:39:24;;;;;;;8.60;7.95;;;;;;;;;;10340715;28;20060;-70
2023/10/05 08:44:26;;;;;;;;;;;;;;;;;;10349310;28;20045;-70
2023/10/05 08:49:23;;;;;;;8.25;7.45;;;;;;;;;;10343019;28;19920;-70
2023/10/05 08:54:21;;;;;;;7.50;7.00;;;;;;;;;;10340030;28;20055;-70
2023/10/05 08:59:19;;;;;;;7.90;7.30;;;;;;;;;;10333552;28;20051;-70
2023/10/05 09:09:14;;;;;;;8.68;8.02;;;;;;;;;;10349214;28;20052;-70
2023/10/05 09:14:14;;;;;;;9.95;7.80;;;;;;;;;;10340021;28;20090;-70
2023/10/05 09:19:13;;;;;;;8.10;7.55;;;;;;;;;;10351351;28;20106;-70
2023/10/05 09:24:20;;;;;;;9.50;8.20;;;;;;;;;;10341974;28;20052;-70
2023/10/05 09:29:30;;;;;;;9.23;8.30;;;;;;;;;;10343733;28;20599;-70
2023/10/05 09:34:36;;;;;;;11.10;8.13;;;;;;;;;;10344408;28;20044;-70
2023/10/05 09:39:42;;;;;;;8.80;8.10;;;;;;;;;;10329416;28;20076;-70
2023/10/05 09:44:42;;;;;;;9.35;8.60;;;;;;;;;;10337682;28;20139;-70
2023/10/05 09:49:39;;;;;;;10.13;7.95;;;;;;;;;;10341036;28;20110;-70
2023/10/05 09:54:36;;;;;;;8.32;7.45;;;;;;;;;;10338224;28;20127;-70
2023/10/05 09:59:41;;;;;;;15.05;9.27;;;;;;;;;;10330934;28;20545;-70
2023/10/05 10:04:39;;;;;;;13.50;8.40;;;;;;;;;;10339024;28;20541;-70
2023/10/05 10:09:39;;;;;;;9.93;8.40;;;;;;;;;;10333218;28;20052;-71
2023/10/05 10:14:41;;;;;;;10.13;8.40;;;;;;;;;;10325547;28;20052;-70
2023/10/05 10:19:45;;;;;;;8.52;7.72;;;;;;;;;;10334227;28;20052;-71
2023/10/05 10:24:42;;;;;;;11.18;7.30;;;;;;;;;;10336413;28;20415;-70
2023/10/05 10:29:44;;;;;;;9.60;7.70;;;;;;;;;;10336253;28;20047;-71
2023/10/05 10:34:50;;;;;;;13.55;7.78;;;;;;;;;;10338225;28;20105;-70
2023/10/05 10:39:49;;;;;;;12.88;7.50;;;;;;;;;;10332780;28;20059;-70
2023/10/05 10:44:57;;;;;;;11.95;6.05;;;;;;;;;;10342689;28;20422;-70
2023/10/05 10:50:16;;;;;;;13.45;4.95;;;;;;;;;;10335175;28;20503;-71
2023/10/05 10:55:15;;;;;;;9.57;5.65;;;;;;;;;;10322552;28;20048;-71
2023/10/05 11:05:39;;;;;;;10.32;6.70;;;;;;;;;;10339167;28;20044;-71
2023/10/05 11:10:36;;;;;;;12.05;7.25;;;;;;;;;;10334724;28;20083;-71
2023/10/05 11:15:34;;;;;;;9.07;7.80;;;;;;;;;;10321589;28;20058;-71
2023/10/05 11:20:33;;;;;;;10.18;6.32;;;;;;;;;;10339827;28;20052;-71
2023/10/05 11:25:35;;;;;;;13.07;6.63;;;;;;;;;;10328564;28;20463;-71
2023/10/05 11:30:49;;;;;;;11.13;6.00;;;;;;;;;;10326579;28;20056;-71
2023/10/05 11:35:54;;;;;;;11.05;5.45;;;;;;;;;;10330351;28;20048;-71
2023/10/05 11:40:53;;;;;;;8.85;5.53;;;;;;;;;;10334974;28;20102;-71
2023/10/05 11:46:00;;;;;;;7.32;4.78;;;;;;;;;;10330952;28;20055;-71
2023/10/05 11:50:57;;;;;;;12.85;5.40;;;;;;;;;;10326320;28;20080;-71
2023/10/05 11:55:55;;;;;;;11.10;4.75;;;;;;;;;;10333693;28;20052;-71
2023/10/05 12:00:52;;;;;;;12.35;5.40;;;;;;;;;;10340965;28;20104;-72
2023/10/05 12:05:48;;;;;;;10.77;6.22;;;;;;;;;;10334537;28;20048;-71
2023/10/05 12:10:45;;;;;;;9.00;5.05;;;;;;;;;;10349850;28;20511;-71
2023/10/05 12:15:41;;;;;;;7.22;5.38;;;;;;;;;;10332309;28;20068;-72
2023/10/05 12:20:37;;;;;;;9.40;5.43;;;;;;;;;;10328626;28;20048;-71
2023/10/05 12:25:36;;;;;;;8.20;4.93;;;;;;;;;;10338105;28;20060;-71
2023/10/05 12:30:32;;;;;;;8.48;5.28;;;;;;;;;;10331512;28;20056;-72
2023/10/05 12:35:29;;;;;;;12.32;5.68;;;;;;;;;;10337667;28;20515;-71
2023/10/05 12:40:33;;;;;;;8.23;5.60;;;;;;;;;;10344598;28;20512;-71
2023/10/05 12:45:30;;;;;;;11.85;5.32;;;;;;;;;;10346007;28;20559;-70
2023/10/05 12:50:30;;;;;;;6.35;5.70;;;;;;;;;;10339862;28;20052;-71
2023/10/05 12:55:26;;;;;;;7.85;5.05;;;;;;;;;;10331241;28;20072;-71
2023/10/05 13:00:39;;;;;;;11.27;5.65;;;;;;;;;;10336242;28;20059;-71
2023/10/05 13:05:47;;;;;;;8.68;5.30;;;;;;;;;;10348966;28;20087;-71
2023/10/05 13:10:44;;;;;;;12.95;5.68;;;;;;;;;;10346232;28;20565;-71
2023/10/05 13:15:41;;;;;;;11.20;5.25;;;;;;;;;;10337428;28;20170;-71
2023/10/05 13:20:38;;;;;;;17.77;5.38;;;;;;;;;;10329052;28;20056;-71
2023/10/05 13:25:34;;;;;;;8.38;5.13;;;;;;;;;;10328646;28;20522;-71
2023/10/05 13:30:40;;;;;;;6.43;5.22;;;;;;;;;;10316748;28;20143;-71
2023/10/05 13:35:37;;;;;;;10.75;5.60;;;;;;;;;;10328349;28;20044;-71
2023/10/05 13:40:34;;;;;;;7.00;4.82;;;;;;;;;;10383595;22;20543;-71
2023/10/05 13:45:33;;;;;;;10.70;4.90;;;;;;;;;;10355644;28;20062;-72
2023/10/05 13:50:29;;;;;;;6.78;4.80;;;;;;;;;;10357429;28;20048;-71
2023/10/05 13:55:26;;;;;;;8.80;5.00;;;;;;;;;;10350703;28;20044;-71
2023/10/05 14:00:24;;;;;;;7.78;4.82;;;;;;;;;;10354309;28;20109;-71
2023/10/05 14:05:22;;;;;;;9.73;4.93;;;;;;;;;;10357354;28;20052;-71
2023/10/05 14:10:21;;;;;;;9.85;5.25;;;;;;;;;;10351948;28;20047;-72
2023/10/05 14:15:19;;;;;;;6.57;5.32;;;;;;;;;;10345992;28;20110;-72
2023/10/05 14:20:17;;;;;;;7.57;5.15;;;;;;;;;;10341513;28;20123;-72
2023/10/05 14:25:17;;;;;;;7.82;4.82;;;;;;;;;;10338790;28;20550;-72
2023/10/05 14:30:17;;;;;;;8.10;5.32;;;;;;;;;;10342912;28;20060;-72
2023/10/05 14:35:15;;;;;;;8.80;4.80;;;;;;;;;;10337731;28;20052;-72
2023/10/05 14:40:26;;;;;;;9.63;4.80;;;;;;;;;;10344822;28;20147;-72
2023/10/05 14:45:26;;;;;;;7.40;5.20;;;;;;;;;;10347068;28;20047;-71
2023/10/05 14:50:22;;;;;;;8.02;4.90;;;;;;;;;;10339767;28;20522;-72
2023/10/05 14:55:20;;;;;;;8.77;5.15;;;;;;;;;;10354800;28;20047;-71
2023/10/05 15:00:17;;;;;;;10.68;5.10;;;;;;;;;;10346812;28;20048;-72
2023/10/05 15:05:13;;;;;;;6.82;5.18;;;;;;;;;;10355553;28;20056;-72
2023/10/05 15:10:19;;;;;;;8.68;5.03;;;;;;;;;;10346213;28;20657;-71
2023/10/05 15:15:17;;;;;;;13.27;5.32;;;;;;;;;;10336624;28;20055;-72
2023/10/05 15:20:22;;;;;;;12.18;5.38;;;;;;;;;;10354269;28;20447;-71
2023/10/05 15:25:20;;;;;;;8.60;5.13;;;;;;;;;;10362339;28;20515;-71
2023/10/05 15:30:17;;;;;;;6.55;5.28;;;;;;;;;;10340996;28;20083;-71
2023/10/05 15:35:14;;;;;;;7.78;5.25;;;;;;;;;;10339737;28;20095;-72
2023/10/05 15:40:14;;;;;;;8.38;5.55;;;;;;;;;;10358361;22;20450;-72
2023/10/05 15:45:11;;;;;;;10.70;6.05;;;;;;;;;;10356232;28;20048;-71
2023/10/05 15:50:11;;;;;;;7.90;5.65;;;;;;;;;;10351490;28;20048;-72
2023/10/05 15:55:07;;;;;;;13.50;4.70;;;;;;;;;;10351048;28;20105;-71
2023/10/05 16:00:15;;;;;;;10.30;5.10;;;;;;;;;;10357268;28;20044;-71
2023/10/05 16:05:12;;;;;;;11.32;5.45;;;;;;;;;;10353543;28;20051;-72
2023/10/05 16:10:09;;;;;;;13.98;5.57;;;;;;;;;;10358208;28;20043;-71
2023/10/05 16:15:09;;;;;;;13.00;6.00;;;;;;;;;;10356891;28;20048;-71
2023/10/05 16:20:06;;;;;;;12.35;5.93;;;;;;;;;;10353623;28;20052;-71
2023/10/05 16:25:05;;;;;;;8.18;5.70;;;;;;;;;;10350057;28;20066;-72
2023/10/05 16:30:01;;;;;;;12.13;5.03;;;;;;;;;;10383567;22;20075;-71
2023/10/05 16:35:00;;;;;;;9.05;5.40;;;;;;;;;;10328564;28;20059;-70
2023/10/05 16:39:57;;;;;;;5.70;5.10;;;;;;;;;;10327450;28;20500;-71
2023/10/05 16:44:53;;;;;;;11.95;5.63;;;;;;;;;;10310309;28;20045;-71
2023/10/05 16:49:52;;;;;;;10.10;5.30;;;;;;;;;;10305253;28;20048;-71
2023/10/05 16:54:48;;;;;;;10.95;6.00;;;;;;;;;;10290139;28;20052;-72
2023/10/05 16:59:47;;;;;;;10.50;5.75;;;;;;;;;;10313767;28;20052;-71
2023/10/05 17:04:44;;;;;;;7.68;5.80;;;;;;;;;;10310058;28;20064;-72
2023/10/05 17:10:31;;;;;;;9.50;6.25;;;;;;;;;;10311462;22;21729;-70
2023/10/05 17:15:36;;;;;;;14.23;6.35;;;;;;;;;;10178291;28;20052;-71
2023/10/05 17:20:33;;;;;;;14.45;7.00;;;;;;;;;;10273728;28;20132;-71
2023/10/05 17:25:29;;;;;;;12.65;7.03;;;;;;;;;;10300081;28;20170;-71
2023/10/05 17:30:25;;;;;;;12.98;7.35;;;;;;;;;;10311513;28;20052;-71
2023/10/05 17:35:22;;;;;;;9.93;7.05;;;;;;;;;;10311345;28;20198;-71
2023/10/05 17:40:19;;;;;;;8.60;6.93;;;;;;;;;;10309506;28;20052;-71
2023/10/05 17:45:16;;;;;;;9.55;7.30;;;;;;;;;;10315239;28;20480;-71
2023/10/05 17:50:12;;;;;;;13.52;7.25;;;;;;;;;;10302036;23;20061;-71
2023/10/05 17:55:11;;;;;;;8.95;7.43;;;;;;;;;;10273120;28;20088;-71
2023/10/05 18:00:08;;;;;;;8.85;7.10;;;;;;;;;;10271472;28;20049;-71
2023/10/05 18:05:05;;;;;;;9.82;6.88;;;;;;;;;;10270924;28;20060;-71
2023/10/05 18:10:07;;;;;;;9.10;7.30;;;;;;;;;;10253747;28;20048;-71
2023/10/05 18:15:05;;;;;;;9.90;7.70;;;;;;;;;;10256018;28;20492;-71
2023/10/05 18:20:02;;;;;;;13.55;7.38;;;;;;;;;;10255734;28;20053;-71
2023/10/05 18:25:00;;;;;;;10.15;8.45;;;;;;;;;;10258228;28;20096;-71
2023/10/05 18:30:13;;;;;;;12.25;7.88;;;;;;;;;;10314904;22;20128;-71
2023/10/05 18:36:19;;;;;;;;;;;;;;;;;;;;;
2023/10/05 18:41:34;;;;;;;12.25;7.80;;;;;;;;;;10286179;28;20102;-71
2023/10/05 18:46:30;;;;;;;13.68;8.18;;;;;;;;;;10309497;28;20071;-71
2023/10/05 18:51:26;;;;;;;8.60;7.18;;;;;;;;;;10306920;28;20145;-71
2023/10/05 18:56:23;;;;;;;8.52;7.07;;;;;;;;;;10314365;28;20075;-71
2023/10/05 19:01:20;;;;;;;13.48;8.13;;;;;;;;;;10293476;22;20048;-71
2023/10/05 19:06:17;;;;;;;9.23;7.57;;;;;;;;;;10285714;28;20054;-71
2023/10/05 19:11:14;;;;;;;12.35;8.23;;;;;;;;;;10271106;28;20062;-71
2023/10/05 19:16:10;;;;;;;13.75;8.27;;;;;;;;;;10282697;28;20098;-71
2023/10/05 19:21:11;;;;;;;16.90;8.63;;;;;;;;;;10296885;28;20535;-71
2023/10/05 19:26:08;;;;;;;11.90;8.17;;;;;;;;;;10290655;28;20049;-71
2023/10/05 19:31:04;;;;;;;17.70;8.27;;;;;;;;;;10290344;28;20606;-71
2023/10/05 19:36:01;;;;;;;12.55;8.30;;;;;;;;;;10288377;28;20057;-71
2023/10/05 19:40:58;;;;;;;9.48;6.50;;;;;;;;;;10289830;28;20107;-71
2023/10/05 19:45:54;;;;;;;10.25;6.63;;;;;;;;;;10297606;28;20053;-71
2023/10/05 19:50:50;;;;;;;10.88;7.18;;;;;;;;;;10279430;28;20041;-71
2023/10/05 19:55:56;;;;;;;10.10;6.90;;;;;;;;;;10280021;28;20435;-71
2023/10/05 20:00:53;;;;;;;8.60;6.55;;;;;;;;;;10284638;28;20516;-71
2023/10/05 20:05:49;;;;;;;7.55;6.63;;;;;;;;;;10284844;28;20055;-71
2023/10/05 20:10:45;;;;;;;8.57;6.63;;;;;;;;;;10304465;28;20419;-71
2023/10/05 20:15:43;;;;;;;13.02;6.82;;;;;;;;;;10287721;28;20176;-71
2023/10/05 20:20:42;;;;;;;13.32;6.97;;;;;;;;;;10278252;28;20083;-71
2023/10/05 20:25:39;;;;;;;10.10;6.88;;;;;;;;;;10282348;28;20518;-71
2023/10/05 20:30:37;;;;;;;7.20;6.55;;;;;;;;;;10265193;28;20077;-70
2023/10/05 20:35:34;;;;;;;12.82;7.18;;;;;;;;;;10265659;28;20404;-71
2023/10/05 20:40:33;;;;;;;14.20;7.47;;;;;;;;;;10268417;28;20083;-71
2023/10/05 20:45:29;;;;;;;14.43;7.95;;;;;;;;;;10284466;28;20044;-71
2023/10/05 20:50:26;;;;;;;9.10;7.07;;;;;;;;;;10275088;28;20535;-71
2023/10/05 20:55:24;;;;;;;10.90;7.10;;;;;;;;;;10269209;28;20409;-71
2023/10/05 21:00:20;;;;;;;13.65;8.77;;;;;;;;;;10275780;28;20534;-71
2023/10/05 21:05:16;;;;;;;8.13;7.32;;;;;;;;;;10284689;28;20458;-71
2023/10/05 21:10:13;;;;;;;9.20;6.85;;;;;;;;;;10310042;22;20065;-71
2023/10/05 21:15:10;;;;;;;11.50;7.53;;;;;;;;;;10284878;28;20040;-71
2023/10/05 21:20:08;;;;;;;8.55;7.55;;;;;;;;;;10297836;28;20056;-71
2023/10/05 21:25:06;;;;;;;9.70;8.65;;;;;;;;;;10299438;28;20064;-71
2023/10/05 21:30:08;;;;;;;11.63;9.93;;;;;;;;;;10307838;28;20049;-71
2023/10/05 21:35:07;;;;;;;10.60;9.57;;;;;;;;;;10309500;28;20066;-71
2023/10/05 21:40:04;;;;;;;10.85;9.80;;;;;;;;;;10319785;28;20573;-71
2023/10/05 21:45:12;;;;;;;15.52;11.00;;;;;;;;;;10304981;28;20090;-71
2023/10/05 21:50:09;;;;;;;13.40;11.02;;;;;;;;;;10304825;28;20572;-71
2023/10/05 21:55:06;;;;;;;12.27;10.38;;;;;;;;;;10304897;28;20045;-71
2023/10/05 22:00:09;;;;;;;17.00;11.98;;;;;;;;;;10311169;28;20087;-71
2023/10/05 22:05:06;;;;;;;15.60;11.40;;;;;;;;;;10313170;28;20436;-71
2023/10/05 22:10:02;;;;;;;13.15;10.85;;;;;;;;;;10317918;28;20412;-71
2023/10/05 22:14:59;;;;;;;12.73;11.43;;;;;;;;;;10319841;28;20538;-70
2023/10/05 22:19:59;;;;;;;12.60;11.35;;;;;;;;;;10304966;28;20519;-71
2023/10/05 22:24:56;;;;;;;16.25;11.85;;;;;;;;;;10300611;28;20114;-71
2023/10/05 22:29:52;;;;;;;13.00;11.55;;;;;;;;;;10296792;28;20037;-71
2023/10/05 22:34:49;;;;;;;16.25;12.48;;;;;;;;;;10291609;28;20088;-70
2023/10/05 22:39:45;;;;;;;13.30;11.90;;;;;;;;;;10311875;28;20044;-71
2023/10/05 22:44:41;;;;;;;12.15;10.93;;;;;;;;;;10306860;28;20056;-71
2023/10/05 22:49:38;;;;;;;12.23;11.10;;;;;;;;;;10311284;28;20444;-70
2023/10/05 22:54:34;;;;;;;12.98;10.43;;;;;;;;;;10301357;28;20048;-71
2023/10/05 22:59:30;;;;;;;11.40;10.05;;;;;;;;;;10307267;28;20789;-70
2023/10/05 23:04:26;;;;;;;11.40;10.35;;;;;;;;;;10303578;28;20045;-71
2023/10/05 23:09:23;;;;;;;12.57;10.30;;;;;;;;;;10311359;28;20036;-71
2023/10/05 23:14:19;;;;;;;12.13;10.90;;;;;;;;;;10317832;28;20094;-71
2023/10/05 23:19:15;;;;;;;13.77;12.40;;;;;;;;;;10311782;28;20049;-70
2023/10/05 23:24:12;;;;;;;15.55;11.88;;;;;;;;;;10307049;28;20108;-71
2023/10/05 23:29:08;;;;;;;12.52;11.52;;;;;;;;;;10294529;28;20128;-71
2023/10/05 23:34:12;;;;;;;15.20;12.15;;;;;;;;;;10306499;28;20061;-70
2023/10/05 23:39:09;;;;;;;13.65;11.63;;;;;;;;;;10303696;28;20080;-71
2023/10/05 23:44:09;;;;;;;12.95;11.55;;;;;;;;;;10307359;28;20073;-69
2023/10/05 23:49:16;;;;;;;16.35;13.02;;;;;;;;;;10300184;28;20052;-71
2023/10/05 23:54:15;;;;;;;15.15;12.30;;;;;;;;;;10297046;28;20063;-70
2023/10/05 23:59:14;;;;;;;13.93;12.63;;;;;;;;;;10305589;28;20127;-70
